createdAt,value
2022-12-03T08:18:33.838Z,101015.09
2022-12-03T08:21:07.617Z,101019.89
2022-12-03T08:23:38.387Z,101019.09
2022-12-03T08:26:19.091Z,101013.95
2022-12-03T08:28:49.911Z,101006.05
2022-12-03T08:31:28.000Z,101010.52
2022-12-03T08:34:18.854Z,101010.14
2022-12-03T08:36:51.916Z,101006.64
2022-12-03T08:39:33.229Z,101000.73
2022-12-03T08:42:31.206Z,101000.15
2022-12-03T08:45:39.644Z,101001.95
2022-12-03T08:48:29.490Z,101004.77
2022-12-03T08:51:02.425Z,101008.24
2022-12-03T08:53:38.344Z,101010.79
2022-12-03T08:56:21.366Z,101010.69
2022-12-03T08:58:56.881Z,101017.27
2022-12-03T09:01:42.822Z,101017.45
2022-12-03T09:04:30.322Z,101018.16
2022-12-03T09:07:01.225Z,101017.66
2022-12-03T09:09:31.970Z,101017.98
2022-12-03T09:12:03.215Z,101017.38
2022-12-03T09:14:33.930Z,101017.30
2022-12-03T09:17:04.898Z,101017.81
2022-12-03T09:19:35.664Z,101016.80
2022-12-03T09:22:06.569Z,101013.00
2022-12-03T09:24:37.418Z,101012.20
2022-12-03T09:27:08.135Z,101012.27
2022-12-03T09:29:38.887Z,101011.47
2022-12-03T09:32:13.669Z,101004.95
2022-12-03T09:34:48.511Z,101006.24
2022-12-03T09:37:19.278Z,101007.39
2022-12-03T09:39:49.883Z,101005.35
2022-12-03T09:42:20.802Z,101002.73
2022-12-03T09:44:51.836Z,101000.77
2022-12-03T09:47:23.869Z,100998.60
2022-12-03T09:49:56.737Z,101003.89
2022-12-03T09:52:30.224Z,101006.49
2022-12-03T09:55:02.466Z,101006.77
2022-12-03T09:57:33.709Z,101006.58
2022-12-03T10:00:07.985Z,101002.19
2022-12-03T10:03:02.801Z,100996.71
2022-12-03T10:05:34.314Z,100999.14
2022-12-03T10:08:09.343Z,100997.56
2022-12-03T10:10:42.937Z,100997.21
2022-12-03T10:13:25.766Z,100990.86
2022-12-03T10:15:59.560Z,100992.55
2022-12-03T10:18:30.791Z,100990.34
2022-12-03T10:21:02.457Z,100988.73
2022-12-03T10:23:33.726Z,100985.80
2022-12-03T10:26:05.549Z,100979.71
2022-12-03T10:28:38.265Z,100976.88
2022-12-03T10:31:11.461Z,100973.22
2022-12-03T10:33:44.875Z,100974.16
2022-12-03T10:36:18.414Z,100972.91
2022-12-03T10:39:06.654Z,100973.77
2022-12-03T10:41:37.852Z,100970.98
2022-12-03T10:44:25.513Z,100969.41
2022-12-03T10:47:10.802Z,100967.77
2022-12-03T10:49:42.539Z,100967.02
2022-12-03T10:52:25.706Z,100966.89
2022-12-03T10:54:57.258Z,100967.64
2022-12-03T10:57:28.084Z,100968.69
2022-12-03T10:59:59.241Z,100964.88
2022-12-03T11:02:30.075Z,100964.59
2022-12-03T11:05:00.980Z,100964.05
2022-12-03T11:07:32.075Z,100960.28
2022-12-03T11:10:06.175Z,100960.90
2022-12-03T11:12:37.102Z,100955.90
2022-12-03T11:15:15.541Z,100954.48
2022-12-03T11:17:49.227Z,100950.45
2022-12-03T11:21:04.574Z,100952.09
2022-12-03T11:24:10.530Z,100948.19
2022-12-03T11:27:16.030Z,100946.60
2022-12-03T11:29:55.356Z,100946.32
2022-12-03T11:32:41.948Z,100942.83
2022-12-03T11:35:16.613Z,100936.92
2022-12-03T11:37:47.561Z,100932.61
2022-12-03T11:40:39.410Z,100932.21
2022-12-03T11:43:12.441Z,100929.42
2022-12-03T11:45:44.371Z,100930.41
2022-12-03T11:48:16.996Z,100928.04
2022-12-03T11:50:53.097Z,100927.11
2022-12-03T11:53:26.845Z,100929.06
2022-12-03T11:56:09.083Z,100927.73
2022-12-03T11:58:43.542Z,100922.31
2022-12-03T12:01:15.962Z,100918.45
2022-12-03T12:03:49.876Z,100919.30
2022-12-03T12:06:22.290Z,100919.88
2022-12-03T12:09:03.920Z,100910.17
2022-12-03T12:11:38.791Z,100911.55
2022-12-03T12:14:11.302Z,100910.60
2022-12-03T12:16:50.943Z,100907.83
2022-12-03T12:19:33.831Z,100906.06
2022-12-03T12:22:29.604Z,100905.41
2022-12-03T12:25:02.351Z,100902.52
2022-12-03T12:27:39.347Z,100905.40
2022-12-03T12:30:14.761Z,100899.79
2022-12-03T12:32:48.906Z,100890.34
2022-12-03T12:35:23.233Z,100887.73
2022-12-03T12:37:59.770Z,100884.29
2022-12-03T12:40:34.110Z,100881.81
2022-12-03T12:43:14.198Z,100877.14
2022-12-03T12:45:47.585Z,100875.36
2022-12-03T12:48:24.659Z,100874.36
2022-12-03T12:51:07.772Z,100874.30
2022-12-03T12:53:40.214Z,100873.72
2022-12-03T12:56:21.116Z,100863.89
2022-12-03T12:58:52.057Z,100861.70
2022-12-03T13:01:27.276Z,100851.10
2022-12-03T13:03:59.601Z,100843.94
2022-12-03T13:06:31.912Z,100846.11
2022-12-03T13:09:02.723Z,100844.98
2022-12-03T13:11:42.252Z,100845.95
2022-12-03T13:14:18.808Z,100850.36
2022-12-03T13:16:51.523Z,100853.08
2022-12-03T13:19:27.313Z,100850.48
2022-12-03T13:22:01.214Z,100853.36
2022-12-03T13:24:37.110Z,100850.72
2022-12-03T13:27:26.656Z,100850.50
2022-12-03T13:30:01.157Z,100845.86
2022-12-03T13:32:34.784Z,100845.80
2022-12-03T13:35:16.248Z,100842.27
2022-12-03T13:37:47.537Z,100845.61
2022-12-03T13:40:25.379Z,100844.69
2022-12-03T13:42:56.065Z,100846.78
2022-12-03T13:45:36.508Z,100848.50
2022-12-03T13:48:21.097Z,100848.56
2022-12-03T13:50:52.700Z,100849.77
2022-12-03T13:53:26.814Z,100845.36
2022-12-03T13:56:05.501Z,100841.02
2022-12-03T13:58:36.211Z,100843.13
2022-12-03T14:01:07.333Z,100839.77
2022-12-03T14:03:38.404Z,100838.59
2022-12-03T14:06:09.734Z,100834.23
2022-12-03T14:08:40.634Z,100845.39
2022-12-03T14:11:32.570Z,100841.92
2022-12-03T14:14:03.964Z,100840.60
2022-12-03T14:16:34.792Z,100838.79
2022-12-03T14:19:06.199Z,100834.16
2022-12-03T14:21:36.911Z,100840.34
2022-12-03T14:24:08.922Z,100838.60
2022-12-03T14:26:39.651Z,100832.92
2022-12-03T14:29:10.428Z,100836.67
2022-12-03T14:31:41.373Z,100836.88
2022-12-03T14:34:12.085Z,100838.43
2022-12-03T14:36:43.158Z,100838.79
2022-12-03T14:39:13.806Z,100836.27
2022-12-03T14:42:01.883Z,100841.76
2022-12-03T14:44:32.536Z,100839.59
2022-12-03T14:47:03.249Z,100839.55
2022-12-03T14:49:33.895Z,100842.11
2022-12-03T14:52:07.478Z,100842.64
2022-12-03T14:54:42.467Z,100834.48
2022-12-03T14:57:15.347Z,100842.45
2022-12-03T14:59:47.158Z,100847.11
2022-12-03T15:02:17.937Z,100844.27
2022-12-03T15:04:48.768Z,100846.46
2022-12-03T15:07:19.433Z,100843.11
2022-12-03T15:09:50.683Z,100846.27
2022-12-03T15:12:21.366Z,100845.93
2022-12-03T15:14:52.575Z,100848.26
2022-12-03T15:17:30.942Z,100850.20
2022-12-03T15:20:02.341Z,100852.14
2022-12-03T15:22:33.046Z,100853.19
2022-12-03T15:25:03.922Z,100851.17
2022-12-03T15:27:34.729Z,100850.80
2022-12-03T15:30:06.328Z,100846.98
2022-12-03T15:32:36.955Z,100843.42
2022-12-03T15:35:13.572Z,100846.65
2022-12-03T15:37:44.253Z,100844.75
2022-12-03T15:40:16.054Z,100843.33
2022-12-03T15:42:46.718Z,100839.61
2022-12-03T15:45:18.351Z,100843.48
2022-12-03T15:47:49.053Z,100844.35
2022-12-03T15:50:20.235Z,100844.77
2022-12-03T15:52:50.951Z,100842.11
2022-12-03T15:55:21.750Z,100839.28
2022-12-03T15:57:52.560Z,100841.41
2022-12-03T16:00:24.507Z,100836.23
2022-12-03T16:02:55.233Z,100840.86
2022-12-03T16:05:25.959Z,100839.36
2022-12-03T16:07:56.883Z,100841.66
2022-12-03T16:10:27.731Z,100844.94
2022-12-03T16:12:58.427Z,100846.48
2022-12-03T16:15:29.588Z,100843.90
2022-12-03T16:18:00.272Z,100841.76
2022-12-03T16:20:31.215Z,100839.77
2022-12-03T16:23:02.029Z,100837.74
2022-12-03T16:25:32.835Z,100835.90
2022-12-03T16:28:03.485Z,100837.39
2022-12-03T16:30:34.315Z,100831.73
2022-12-03T16:33:05.149Z,100830.50
2022-12-03T16:35:35.931Z,100834.68
2022-12-03T16:38:06.679Z,100828.82
2022-12-03T16:40:37.502Z,100834.77
2022-12-03T16:43:09.674Z,100833.20
2022-12-03T16:46:02.502Z,100828.98
2022-12-03T16:48:33.595Z,100828.59
2022-12-03T16:51:04.244Z,100823.14
2022-12-03T16:53:35.255Z,100827.01
2022-12-03T16:56:06.358Z,100828.66
2022-12-03T16:58:37.041Z,100824.73
2022-12-03T17:01:10.530Z,100824.23
2022-12-03T17:03:42.407Z,100826.23
2022-12-03T17:06:13.408Z,100823.66
2022-12-03T17:08:48.969Z,100822.07
2022-12-03T17:11:20.494Z,100818.73
2022-12-03T17:13:51.243Z,100820.67
2022-12-03T17:16:21.991Z,100823.23
2022-12-03T17:18:52.776Z,100820.60
2022-12-03T17:21:23.559Z,100822.02
2022-12-03T17:23:54.341Z,100824.36
2022-12-03T17:26:24.942Z,100817.30
2022-12-03T17:28:55.635Z,100812.34
2022-12-03T17:31:26.419Z,100810.89
2022-12-03T17:33:57.879Z,100811.38
2022-12-03T17:36:28.945Z,100808.05
2022-12-03T17:38:59.888Z,100810.30
2022-12-03T17:41:30.595Z,100808.80
2022-12-03T17:44:03.613Z,100808.08
2022-12-03T17:46:38.338Z,100808.59
2022-12-03T17:49:09.091Z,100802.73
2022-12-03T17:51:39.917Z,100796.79
2022-12-03T17:54:10.723Z,100794.64
2022-12-03T17:56:43.625Z,100801.16
2022-12-03T17:59:15.014Z,100798.61
2022-12-03T18:01:45.735Z,100795.76
2022-12-03T18:04:16.797Z,100793.27
2022-12-03T18:06:47.602Z,100793.36
2022-12-03T18:09:18.327Z,100790.48
2022-12-03T18:11:49.072Z,100788.02
2022-12-03T18:14:19.934Z,100791.43
2022-12-03T18:16:50.784Z,100789.81
2022-12-03T18:19:21.796Z,100790.94
2022-12-03T18:21:52.460Z,100792.61
2022-12-03T18:24:23.706Z,100788.06
2022-12-03T18:26:54.396Z,100797.41
2022-12-03T18:29:25.115Z,100796.15
2022-12-03T18:31:55.861Z,100795.45
2022-12-03T18:34:26.666Z,100795.36
2022-12-03T18:36:57.734Z,100799.73
2022-12-03T18:39:35.519Z,100794.24
2022-12-03T18:42:18.031Z,100795.40
2022-12-03T18:44:51.550Z,100791.32
2022-12-03T18:47:24.575Z,100792.69
2022-12-03T18:49:59.791Z,100791.87
2022-12-03T18:52:30.598Z,100790.32
2022-12-03T18:55:01.259Z,100780.27
2022-12-03T18:57:31.899Z,100780.70
2022-12-03T19:00:02.725Z,100781.39
2022-12-03T19:03:01.335Z,100774.96
2022-12-03T19:05:24.119Z,100787.02
2022-12-03T19:07:56.581Z,100786.95
2022-12-03T19:10:28.316Z,100786.98
2022-12-03T19:12:58.958Z,100787.64
2022-12-03T19:15:29.646Z,100790.95
2022-12-03T19:18:00.476Z,100785.39
2022-12-03T19:20:31.277Z,100784.44
2022-12-03T19:23:02.007Z,100791.48
2022-12-03T19:25:33.256Z,100793.91
2022-12-03T19:28:04.239Z,100788.59
2022-12-03T19:30:34.929Z,100790.71
2022-12-03T19:33:05.679Z,100786.02
2022-12-03T19:35:41.698Z,100795.14
2022-12-03T19:38:12.604Z,100787.75
2022-12-03T19:40:43.637Z,100790.16
2022-12-03T19:43:14.382Z,100787.35
2022-12-03T19:45:45.102Z,100786.68
2022-12-03T19:48:16.185Z,100784.98
2022-12-03T19:51:13.535Z,100786.97
2022-12-03T19:53:47.582Z,100791.27
2022-12-03T19:56:20.026Z,100793.29
2022-12-03T19:58:55.074Z,100789.11
2022-12-03T20:01:27.846Z,100791.43
2022-12-03T20:04:00.449Z,100792.30
2022-12-03T20:06:33.250Z,100789.88
2022-12-03T20:09:07.186Z,100787.66
2022-12-03T20:11:38.252Z,100789.48
2022-12-03T20:14:14.578Z,100786.39
2022-12-03T20:16:46.149Z,100786.77
2022-12-03T20:19:18.587Z,100790.15
2022-12-03T20:21:49.664Z,100789.55
2022-12-03T20:24:20.632Z,100789.59
2022-12-03T20:26:51.307Z,100789.34
2022-12-03T20:29:21.978Z,100783.24
2022-12-03T20:31:52.745Z,100784.79
2022-12-03T20:34:23.612Z,100781.31
2022-12-03T20:36:54.589Z,100780.58
2022-12-03T20:39:25.442Z,100780.45
2022-12-03T20:41:59.326Z,100775.55
2022-12-03T20:44:30.066Z,100778.41
2022-12-03T20:47:00.902Z,100779.09
2022-12-03T20:49:31.785Z,100775.09
2022-12-03T20:52:04.574Z,100764.36
2022-12-03T20:54:35.566Z,100767.50
2022-12-03T20:57:06.486Z,100767.38
2022-12-03T20:59:37.430Z,100768.98
2022-12-03T21:02:08.177Z,100768.08
2022-12-03T21:04:39.052Z,100763.67
2022-12-03T21:07:09.661Z,100760.30
2022-12-03T21:09:40.091Z,100766.36
2022-12-03T21:12:11.090Z,100771.15
2022-12-03T21:14:41.756Z,100770.98
2022-12-03T21:17:12.635Z,100772.34
2022-12-03T21:19:43.364Z,100769.25
2022-12-03T21:22:14.307Z,100767.17
2022-12-03T21:24:45.236Z,100762.42
2022-12-03T21:27:21.387Z,100762.27
2022-12-03T21:29:52.953Z,100758.20
2022-12-03T21:32:26.874Z,100762.97
2022-12-03T21:34:57.767Z,100757.78
2022-12-03T21:37:28.590Z,100756.30
2022-12-03T21:39:59.568Z,100751.89
2022-12-03T21:42:35.756Z,100758.17
2022-12-03T21:45:17.067Z,100752.66
2022-12-03T21:47:50.363Z,100749.88
2022-12-03T21:50:21.436Z,100753.44
2022-12-03T21:52:52.734Z,100756.34
2022-12-03T21:55:23.361Z,100751.79
2022-12-03T21:57:54.129Z,100750.88
2022-12-03T22:00:26.689Z,100753.18
2022-12-03T22:02:59.724Z,100756.92
2022-12-03T22:05:30.708Z,100754.84
2022-12-03T22:08:01.335Z,100757.01
2022-12-03T22:10:32.104Z,100755.46
2022-12-03T22:13:03.186Z,100757.52
2022-12-03T22:15:34.002Z,100752.05
2022-12-03T22:18:04.911Z,100749.62
2022-12-03T22:20:35.616Z,100752.65
2022-12-03T22:23:06.349Z,100751.50
2022-12-03T22:25:37.097Z,100752.05
2022-12-03T22:28:07.899Z,100754.30
2022-12-03T22:30:41.610Z,100752.00
2022-12-03T22:33:12.462Z,100756.60
2022-12-03T22:35:43.184Z,100752.23
2022-12-03T22:38:13.965Z,100751.01
2022-12-03T22:40:44.797Z,100748.70
2022-12-03T22:43:15.664Z,100746.29
2022-12-03T22:45:46.392Z,100745.41
2022-12-03T22:48:17.311Z,100735.10
2022-12-03T22:50:49.216Z,100736.22
2022-12-03T22:53:21.188Z,100738.23
2022-12-03T22:55:59.246Z,100737.30
2022-12-03T22:58:31.421Z,100735.95
2022-12-03T23:01:03.053Z,100730.48
2022-12-03T23:03:34.199Z,100724.02
2022-12-03T23:06:11.863Z,100725.45
2022-12-03T23:08:42.556Z,100719.99
2022-12-03T23:11:13.335Z,100716.98
2022-12-03T23:13:44.359Z,100711.48
2022-12-03T23:16:17.886Z,100711.14
2022-12-03T23:18:49.310Z,100713.95
2022-12-03T23:21:28.948Z,100710.63
2022-12-03T23:24:00.497Z,100708.01
2022-12-03T23:26:31.423Z,100699.61
2022-12-03T23:29:02.149Z,100700.26
2022-12-03T23:31:34.857Z,100699.30
2022-12-03T23:34:06.490Z,100697.35
2022-12-03T23:36:37.628Z,100695.70
2022-12-03T23:39:08.317Z,100695.80
2022-12-03T23:41:40.792Z,100693.37
2022-12-03T23:44:11.549Z,100691.52
2022-12-03T23:46:42.758Z,100687.77
2022-12-03T23:49:13.602Z,100687.23
2022-12-03T23:51:44.419Z,100687.98
2022-12-03T23:54:15.073Z,100690.83
2022-12-03T23:56:46.013Z,100692.23
2022-12-03T23:59:16.635Z,100687.81
